sensor_id;sensor_type;location;lat;lon;timestamp;temperature;humidity
42135;DHT22;28312;43.460;11.810;2023-04-23T00:00:04;10.80;54.40
42135;DHT22;28312;43.460;11.810;2023-04-23T00:04:15;10.70;54.40
42135;DHT22;28312;43.460;11.810;2023-04-23T00:08:22;10.60;54.50
42135;DHT22;28312;43.460;11.810;2023-04-23T00:12:27;10.60;54.50
42135;DHT22;28312;43.460;11.810;2023-04-23T00:16:31;10.50;54.70
42135;DHT22;28312;43.460;11.810;2023-04-23T00:20:35;10.40;54.80
42135;DHT22;28312;43.460;11.810;2023-04-23T00:24:43;10.30;54.80
42135;DHT22;28312;43.460;11.810;2023-04-23T00:28:47;10.20;55.00
42135;DHT22;28312;43.460;11.810;2023-04-23T00:32:51;10.20;55.00
42135;DHT22;28312;43.460;11.810;2023-04-23T00:36:55;10.20;55.00
42135;DHT22;28312;43.460;11.810;2023-04-23T00:40:59;10.20;55.00
42135;DHT22;28312;43.460;11.810;2023-04-23T00:45:02;10.10;55.00
42135;DHT22;28312;43.460;11.810;2023-04-23T00:49:06;10.00;55.20
42135;DHT22;28312;43.460;11.810;2023-04-23T00:53:10;10.00;55.30
42135;DHT22;28312;43.460;11.810;2023-04-23T00:57:14;9.90;55.40
42135;DHT22;28312;43.460;11.810;2023-04-23T01:01:22;9.80;55.50
42135;DHT22;28312;43.460;11.810;2023-04-23T01:05:27;9.70;55.60
42135;DHT22;28312;43.460;11.810;2023-04-23T01:09:31;9.70;55.70
42135;DHT22;28312;43.460;11.810;2023-04-23T01:13:36;9.70;55.60
42135;DHT22;28312;43.460;11.810;2023-04-23T01:17:40;9.70;55.60
42135;DHT22;28312;43.460;11.810;2023-04-23T01:21:45;9.60;55.80
42135;DHT22;28312;43.460;11.810;2023-04-23T01:25:49;9.50;55.90
42135;DHT22;28312;43.460;11.810;2023-04-23T01:29:54;9.50;55.90
42135;DHT22;28312;43.460;11.810;2023-04-23T01:33:58;9.50;56.00
42135;DHT22;28312;43.460;11.810;2023-04-23T01:38:04;9.50;56.10
42135;DHT22;28312;43.460;11.810;2023-04-23T01:42:08;9.40;56.20
42135;DHT22;28312;43.460;11.810;2023-04-23T01:46:13;9.30;56.50
42135;DHT22;28312;43.460;11.810;2023-04-23T01:50:17;9.20;56.60
42135;DHT22;28312;43.460;11.810;2023-04-23T01:54:20;9.30;56.60
42135;DHT22;28312;43.460;11.810;2023-04-23T01:58:25;9.30;56.50
42135;DHT22;28312;43.460;11.810;2023-04-23T02:02:28;9.20;56.50
42135;DHT22;28312;43.460;11.810;2023-04-23T02:06:33;9.20;56.60
42135;DHT22;28312;43.460;11.810;2023-04-23T02:10:37;9.20;56.70
42135;DHT22;28312;43.460;11.810;2023-04-23T02:14:41;9.10;56.70
42135;DHT22;28312;43.460;11.810;2023-04-23T02:18:45;9.10;56.60
42135;DHT22;28312;43.460;11.810;2023-04-23T02:22:49;9.00;56.80
42135;DHT22;28312;43.460;11.810;2023-04-23T02:26:54;9.00;56.70
42135;DHT22;28312;43.460;11.810;2023-04-23T02:31:00;8.90;56.70
42135;DHT22;28312;43.460;11.810;2023-04-23T02:35:04;8.80;56.80
42135;DHT22;28312;43.460;11.810;2023-04-23T02:39:13;8.80;56.90
42135;DHT22;28312;43.460;11.810;2023-04-23T02:43:20;8.70;56.90
42135;DHT22;28312;43.460;11.810;2023-04-23T02:47:27;8.50;57.10
42135;DHT22;28312;43.460;11.810;2023-04-23T02:51:32;8.30;57.30
42135;DHT22;28312;43.460;11.810;2023-04-23T02:55:36;8.30;57.30
42135;DHT22;28312;43.460;11.810;2023-04-23T02:59:40;8.20;57.40
42135;DHT22;28312;43.460;11.810;2023-04-23T03:03:43;8.10;57.60
42135;DHT22;28312;43.460;11.810;2023-04-23T03:07:47;8.10;57.70
42135;DHT22;28312;43.460;11.810;2023-04-23T03:11:51;8.20;57.70
42135;DHT22;28312;43.460;11.810;2023-04-23T03:15:57;8.10;57.70
42135;DHT22;28312;43.460;11.810;2023-04-23T03:20:03;8.10;57.70
42135;DHT22;28312;43.460;11.810;2023-04-23T03:24:09;8.10;57.80
42135;DHT22;28312;43.460;11.810;2023-04-23T03:28:14;8.10;57.50
42135;DHT22;28312;43.460;11.810;2023-04-23T03:32:19;8.00;57.70
42135;DHT22;28312;43.460;11.810;2023-04-23T03:36:23;8.00;57.90
42135;DHT22;28312;43.460;11.810;2023-04-23T03:40:27;7.90;57.90
42135;DHT22;28312;43.460;11.810;2023-04-23T03:44:34;8.00;57.90
42135;DHT22;28312;43.460;11.810;2023-04-23T03:48:38;8.00;57.90
42135;DHT22;28312;43.460;11.810;2023-04-23T03:52:47;7.90;58.00
42135;DHT22;28312;43.460;11.810;2023-04-23T03:57:06;7.80;58.30
42135;DHT22;28312;43.460;11.810;2023-04-23T04:01:14;7.80;58.30
42135;DHT22;28312;43.460;11.810;2023-04-23T04:05:17;7.70;58.40
42135;DHT22;28312;43.460;11.810;2023-04-23T04:09:21;7.70;58.60
42135;DHT22;28312;43.460;11.810;2023-04-23T04:13:25;7.70;58.60
42135;DHT22;28312;43.460;11.810;2023-04-23T04:17:28;7.70;58.70
42135;DHT22;28312;43.460;11.810;2023-04-23T04:21:32;7.80;58.70
42135;DHT22;28312;43.460;11.810;2023-04-23T04:25:36;7.70;58.70
42135;DHT22;28312;43.460;11.810;2023-04-23T04:29:42;7.80;58.70
42135;DHT22;28312;43.460;11.810;2023-04-23T04:33:45;7.80;58.70
42135;DHT22;28312;43.460;11.810;2023-04-23T04:37:49;7.80;58.90
42135;DHT22;28312;43.460;11.810;2023-04-23T04:41:52;7.80;59.00
42135;DHT22;28312;43.460;11.810;2023-04-23T04:45:57;7.90;59.10
42135;DHT22;28312;43.460;11.810;2023-04-23T04:50:04;8.00;59.20
42135;DHT22;28312;43.460;11.810;2023-04-23T04:54:11;8.10;59.30
42135;DHT22;28312;43.460;11.810;2023-04-23T04:58:14;8.20;59.30
42135;DHT22;28312;43.460;11.810;2023-04-23T05:02:19;8.30;59.40
42135;DHT22;28312;43.460;11.810;2023-04-23T05:06:24;8.50;59.40
42135;DHT22;28312;43.460;11.810;2023-04-23T05:10:29;8.60;59.50
42135;DHT22;28312;43.460;11.810;2023-04-23T05:14:33;8.70;59.60
42135;DHT22;28312;43.460;11.810;2023-04-23T05:18:37;8.80;59.60
42135;DHT22;28312;43.460;11.810;2023-04-23T05:22:41;8.90;59.70
42135;DHT22;28312;43.460;11.810;2023-04-23T05:26:45;9.10;59.70
42135;DHT22;28312;43.460;11.810;2023-04-23T05:30:49;9.20;59.80
42135;DHT22;28312;43.460;11.810;2023-04-23T05:34:53;9.30;59.80
42135;DHT22;28312;43.460;11.810;2023-04-23T05:38:57;9.50;59.90
42135;DHT22;28312;43.460;11.810;2023-04-23T05:43:01;9.60;59.90
42135;DHT22;28312;43.460;11.810;2023-04-23T05:47:04;9.70;59.90
42135;DHT22;28312;43.460;11.810;2023-04-23T05:51:09;9.90;59.90
42135;DHT22;28312;43.460;11.810;2023-04-23T05:55:13;10.10;60.00
42135;DHT22;28312;43.460;11.810;2023-04-23T05:59:18;10.30;60.00
42135;DHT22;28312;43.460;11.810;2023-04-23T06:03:21;10.50;60.10
42135;DHT22;28312;43.460;11.810;2023-04-23T06:07:25;10.80;60.20
42135;DHT22;28312;43.460;11.810;2023-04-23T06:11:30;11.10;60.00
42135;DHT22;28312;43.460;11.810;2023-04-23T06:15:38;11.30;60.00
42135;DHT22;28312;43.460;11.810;2023-04-23T06:19:41;11.60;59.90
42135;DHT22;28312;43.460;11.810;2023-04-23T06:23:47;11.80;60.00
42135;DHT22;28312;43.460;11.810;2023-04-23T06:27:51;12.00;59.90
42135;DHT22;28312;43.460;11.810;2023-04-23T06:32:00;12.20;59.70
42135;DHT22;28312;43.460;11.810;2023-04-23T06:36:05;12.40;59.70
42135;DHT22;28312;43.460;11.810;2023-04-23T06:40:10;12.50;59.50
42135;DHT22;28312;43.460;11.810;2023-04-23T06:44:14;12.60;59.40
42135;DHT22;28312;43.460;11.810;2023-04-23T06:48:26;12.80;59.40
42135;DHT22;28312;43.460;11.810;2023-04-23T06:52:30;13.00;59.50
42135;DHT22;28312;43.460;11.810;2023-04-23T06:56:36;13.20;59.80
42135;DHT22;28312;43.460;11.810;2023-04-23T07:00:40;13.60;59.60
42135;DHT22;28312;43.460;11.810;2023-04-23T07:04:45;13.90;59.70
42135;DHT22;28312;43.460;11.810;2023-04-23T07:08:48;14.30;59.60
42135;DHT22;28312;43.460;11.810;2023-04-23T07:12:52;14.90;59.50
42135;DHT22;28312;43.460;11.810;2023-04-23T07:16:56;15.50;59.50
42135;DHT22;28312;43.460;11.810;2023-04-23T07:21:00;16.20;59.20
42135;DHT22;28312;43.460;11.810;2023-04-23T07:25:04;16.70;58.40
42135;DHT22;28312;43.460;11.810;2023-04-23T07:29:08;16.90;57.50
42135;DHT22;28312;43.460;11.810;2023-04-23T07:33:13;17.10;57.80
42135;DHT22;28312;43.460;11.810;2023-04-23T07:37:17;17.30;57.50
42135;DHT22;28312;43.460;11.810;2023-04-23T07:41:20;17.20;57.30
42135;DHT22;28312;43.460;11.810;2023-04-23T07:45:24;17.00;57.30
42135;DHT22;28312;43.460;11.810;2023-04-23T07:49:28;16.80;57.70
42135;DHT22;28312;43.460;11.810;2023-04-23T07:53:31;16.70;58.00
42135;DHT22;28312;43.460;11.810;2023-04-23T07:57:35;16.90;58.70
42135;DHT22;28312;43.460;11.810;2023-04-23T08:01:38;17.20;58.70
42135;DHT22;28312;43.460;11.810;2023-04-23T08:05:44;17.50;58.70
42135;DHT22;28312;43.460;11.810;2023-04-23T08:09:48;17.70;58.20
42135;DHT22;28312;43.460;11.810;2023-04-23T08:13:51;17.90;58.20
42135;DHT22;28312;43.460;11.810;2023-04-23T08:17:55;18.00;58.20
42135;DHT22;28312;43.460;11.810;2023-04-23T08:21:59;18.20;58.50
42135;DHT22;28312;43.460;11.810;2023-04-23T08:26:02;18.30;58.00
42135;DHT22;28312;43.460;11.810;2023-04-23T08:30:06;18.30;57.80
42135;DHT22;28312;43.460;11.810;2023-04-23T08:34:11;18.20;58.00
42135;DHT22;28312;43.460;11.810;2023-04-23T08:38:14;18.30;58.20
42135;DHT22;28312;43.460;11.810;2023-04-23T08:46:26;18.60;58.30
42135;DHT22;28312;43.460;11.810;2023-04-23T08:50:35;18.70;58.20
42135;DHT22;28312;43.460;11.810;2023-04-23T08:54:40;18.90;58.20
42135;DHT22;28312;43.460;11.810;2023-04-23T08:58:49;19.20;57.80
42135;DHT22;28312;43.460;11.810;2023-04-23T09:02:53;19.30;57.50
42135;DHT22;28312;43.460;11.810;2023-04-23T09:06:57;19.50;57.30
42135;DHT22;28312;43.460;11.810;2023-04-23T09:11:01;19.70;57.30
42135;DHT22;28312;43.460;11.810;2023-04-23T09:15:08;19.90;57.20
42135;DHT22;28312;43.460;11.810;2023-04-23T09:19:18;20.30;57.30
42135;DHT22;28312;43.460;11.810;2023-04-23T09:23:22;20.70;56.80
42135;DHT22;28312;43.460;11.810;2023-04-23T09:27:26;21.10;56.60
42135;DHT22;28312;43.460;11.810;2023-04-23T09:31:29;21.50;56.40
42135;DHT22;28312;43.460;11.810;2023-04-23T09:35:33;22.00;56.30
42135;DHT22;28312;43.460;11.810;2023-04-23T09:39:40;22.40;55.30
42135;DHT22;28312;43.460;11.810;2023-04-23T09:43:47;22.70;55.40
42135;DHT22;28312;43.460;11.810;2023-04-23T09:47:55;23.00;55.00
42135;DHT22;28312;43.460;11.810;2023-04-23T09:52:05;23.00;54.50
42135;DHT22;28312;43.460;11.810;2023-04-23T09:56:09;23.10;55.00
42135;DHT22;28312;43.460;11.810;2023-04-23T10:00:14;23.10;54.30
42135;DHT22;28312;43.460;11.810;2023-04-23T10:04:23;23.10;54.10
42135;DHT22;28312;43.460;11.810;2023-04-23T10:08:27;22.90;53.80
42135;DHT22;28312;43.460;11.810;2023-04-23T10:12:33;22.90;53.60
42135;DHT22;28312;43.460;11.810;2023-04-23T10:17:02;22.80;53.60
42135;DHT22;28312;43.460;11.810;2023-04-23T10:21:07;22.90;53.20
42135;DHT22;28312;43.460;11.810;2023-04-23T10:25:12;22.90;53.00
42135;DHT22;28312;43.460;11.810;2023-04-23T10:29:20;22.90;52.90
42135;DHT22;28312;43.460;11.810;2023-04-23T10:33:27;22.80;53.10
42135;DHT22;28312;43.460;11.810;2023-04-23T10:37:49;23.00;53.30
42135;DHT22;28312;43.460;11.810;2023-04-23T10:41:54;23.20;52.90
42135;DHT22;28312;43.460;11.810;2023-04-23T10:45:57;23.30;52.60
42135;DHT22;28312;43.460;11.810;2023-04-23T10:54:22;23.50;52.50
42135;DHT22;28312;43.460;11.810;2023-04-23T10:58:47;23.70;52.00
42135;DHT22;28312;43.460;11.810;2023-04-23T11:02:54;23.90;51.70
42135;DHT22;28312;43.460;11.810;2023-04-23T11:07:11;24.10;51.60
42135;DHT22;28312;43.460;11.810;2023-04-23T11:11:15;24.20;50.90
42135;DHT22;28312;43.460;11.810;2023-04-23T11:15:18;24.40;50.70
42135;DHT22;28312;43.460;11.810;2023-04-23T11:19:24;24.60;50.80
42135;DHT22;28312;43.460;11.810;2023-04-23T11:23:29;25.00;50.60
42135;DHT22;28312;43.460;11.810;2023-04-23T11:27:41;25.30;48.90
42135;DHT22;28312;43.460;11.810;2023-04-23T11:31:44;25.50;48.80
42135;DHT22;28312;43.460;11.810;2023-04-23T11:36:05;25.50;48.30
42135;DHT22;28312;43.460;11.810;2023-04-23T11:40:11;25.50;48.00
42135;DHT22;28312;43.460;11.810;2023-04-23T11:44:16;25.30;47.90
42135;DHT22;28312;43.460;11.810;2023-04-23T11:48:19;25.00;47.90
42135;DHT22;28312;43.460;11.810;2023-04-23T11:52:23;24.60;47.80
42135;DHT22;28312;43.460;11.810;2023-04-23T11:56:31;24.40;48.10
42135;DHT22;28312;43.460;11.810;2023-04-23T12:00:35;24.30;48.40
42135;DHT22;28312;43.460;11.810;2023-04-23T12:04:39;24.40;48.70
42135;DHT22;28312;43.460;11.810;2023-04-23T12:08:45;24.60;48.80
42135;DHT22;28312;43.460;11.810;2023-04-23T12:12:53;24.90;49.10
42135;DHT22;28312;43.460;11.810;2023-04-23T12:17:01;25.00;48.50
42135;DHT22;28312;43.460;11.810;2023-04-23T12:21:13;25.10;48.10
42135;DHT22;28312;43.460;11.810;2023-04-23T12:25:21;25.20;48.60
42135;DHT22;28312;43.460;11.810;2023-04-23T12:29:26;25.50;48.40
42135;DHT22;28312;43.460;11.810;2023-04-23T12:33:31;25.50;47.80
42135;DHT22;28312;43.460;11.810;2023-04-23T12:37:35;25.50;47.50
42135;DHT22;28312;43.460;11.810;2023-04-23T12:41:42;25.50;47.50
42135;DHT22;28312;43.460;11.810;2023-04-23T12:45:46;25.50;47.60
42135;DHT22;28312;43.460;11.810;2023-04-23T12:49:50;25.60;48.10
42135;DHT22;28312;43.460;11.810;2023-04-23T12:53:57;25.70;47.50
42135;DHT22;28312;43.460;11.810;2023-04-23T12:58:01;25.60;47.40
42135;DHT22;28312;43.460;11.810;2023-04-23T13:02:05;25.50;47.50
42135;DHT22;28312;43.460;11.810;2023-04-23T13:06:09;25.30;47.40
42135;DHT22;28312;43.460;11.810;2023-04-23T13:10:13;25.30;47.50
42135;DHT22;28312;43.460;11.810;2023-04-23T13:14:19;25.50;47.90
42135;DHT22;28312;43.460;11.810;2023-04-23T13:18:23;25.90;47.70
42135;DHT22;28312;43.460;11.810;2023-04-23T13:22:29;25.90;46.90
42135;DHT22;28312;43.460;11.810;2023-04-23T13:26:35;25.80;46.70
42135;DHT22;28312;43.460;11.810;2023-04-23T13:30:40;25.90;46.50
42135;DHT22;28312;43.460;11.810;2023-04-23T13:34:46;25.90;46.30
42135;DHT22;28312;43.460;11.810;2023-04-23T13:38:51;26.10;45.90
42135;DHT22;28312;43.460;11.810;2023-04-23T13:42:57;26.10;45.30
42135;DHT22;28312;43.460;11.810;2023-04-23T13:47:02;26.00;45.00
42135;DHT22;28312;43.460;11.810;2023-04-23T13:51:07;25.70;45.20
42135;DHT22;28312;43.460;11.810;2023-04-23T13:55:33;25.30;44.90
42135;DHT22;28312;43.460;11.810;2023-04-23T13:59:42;25.00;44.90
42135;DHT22;28312;43.460;11.810;2023-04-23T14:03:48;24.70;44.80
42135;DHT22;28312;43.460;11.810;2023-04-23T14:07:54;24.50;44.90
42135;DHT22;28312;43.460;11.810;2023-04-23T14:12:00;24.30;45.10
42135;DHT22;28312;43.460;11.810;2023-04-23T14:16:06;24.40;45.30
42135;DHT22;28312;43.460;11.810;2023-04-23T14:20:11;24.60;45.40
42135;DHT22;28312;43.460;11.810;2023-04-23T14:24:27;24.70;44.70
42135;DHT22;28312;43.460;11.810;2023-04-23T14:28:38;24.90;45.10
42135;DHT22;28312;43.460;11.810;2023-04-23T14:32:44;25.10;44.60
42135;DHT22;28312;43.460;11.810;2023-04-23T14:36:52;25.00;44.40
42135;DHT22;28312;43.460;11.810;2023-04-23T14:40:55;24.90;43.80
42135;DHT22;28312;43.460;11.810;2023-04-23T14:45:01;24.70;43.80
42135;DHT22;28312;43.460;11.810;2023-04-23T14:49:05;24.60;43.70
42135;DHT22;28312;43.460;11.810;2023-04-23T14:53:09;24.40;43.60
42135;DHT22;28312;43.460;11.810;2023-04-23T14:57:13;24.10;43.50
42135;DHT22;28312;43.460;11.810;2023-04-23T15:01:17;23.90;43.60
42135;DHT22;28312;43.460;11.810;2023-04-23T15:05:21;23.80;43.50
42135;DHT22;28312;43.460;11.810;2023-04-23T15:09:24;23.70;43.30
42135;DHT22;28312;43.460;11.810;2023-04-23T15:17:38;23.60;43.70
42135;DHT22;28312;43.460;11.810;2023-04-23T15:21:42;23.60;42.80
42135;DHT22;28312;43.460;11.810;2023-04-23T15:25:48;23.40;42.50
42135;DHT22;28312;43.460;11.810;2023-04-23T15:29:51;23.10;42.50
42135;DHT22;28312;43.460;11.810;2023-04-23T15:33:55;22.90;42.80
42135;DHT22;28312;43.460;11.810;2023-04-23T15:37:59;22.70;42.80
42135;DHT22;28312;43.460;11.810;2023-04-23T15:42:03;22.60;42.80
42135;DHT22;28312;43.460;11.810;2023-04-23T15:46:07;22.30;42.60
42135;DHT22;28312;43.460;11.810;2023-04-23T15:50:11;22.10;42.90
42135;DHT22;28312;43.460;11.810;2023-04-23T15:54:15;22.00;43.00
42135;DHT22;28312;43.460;11.810;2023-04-23T15:58:19;21.80;43.10
42135;DHT22;28312;43.460;11.810;2023-04-23T16:02:23;21.70;43.20
42135;DHT22;28312;43.460;11.810;2023-04-23T16:06:28;21.60;43.40
42135;DHT22;28312;43.460;11.810;2023-04-23T16:10:31;21.40;43.60
42135;DHT22;28312;43.460;11.810;2023-04-23T16:14:37;21.30;43.60
42135;DHT22;28312;43.460;11.810;2023-04-23T16:18:40;21.10;43.80
42135;DHT22;28312;43.460;11.810;2023-04-23T16:22:44;21.00;43.90
42135;DHT22;28312;43.460;11.810;2023-04-23T16:26:48;20.80;44.00
42135;DHT22;28312;43.460;11.810;2023-04-23T16:30:52;20.70;44.00
42135;DHT22;28312;43.460;11.810;2023-04-23T16:34:56;20.60;44.20
42135;DHT22;28312;43.460;11.810;2023-04-23T16:38:59;20.50;44.40
42135;DHT22;28312;43.460;11.810;2023-04-23T16:43:05;20.40;44.60
42135;DHT22;28312;43.460;11.810;2023-04-23T16:47:09;20.20;44.80
42135;DHT22;28312;43.460;11.810;2023-04-23T16:51:13;20.20;44.90
42135;DHT22;28312;43.460;11.810;2023-04-23T16:55:16;20.20;45.00
42135;DHT22;28312;43.460;11.810;2023-04-23T16:59:22;20.10;45.10
42135;DHT22;28312;43.460;11.810;2023-04-23T17:03:26;20.00;45.20
42135;DHT22;28312;43.460;11.810;2023-04-23T17:07:30;19.90;45.30
42135;DHT22;28312;43.460;11.810;2023-04-23T17:11:34;19.80;45.30
42135;DHT22;28312;43.460;11.810;2023-04-23T17:15:38;19.70;45.40
42135;DHT22;28312;43.460;11.810;2023-04-23T17:19:42;19.70;45.40
42135;DHT22;28312;43.460;11.810;2023-04-23T17:23:46;19.60;45.50
42135;DHT22;28312;43.460;11.810;2023-04-23T17:27:50;19.60;45.50
42135;DHT22;28312;43.460;11.810;2023-04-23T17:31:54;19.50;45.60
42135;DHT22;28312;43.460;11.810;2023-04-23T17:35:58;19.40;45.60
42135;DHT22;28312;43.460;11.810;2023-04-23T17:40:02;19.30;45.70
42135;DHT22;28312;43.460;11.810;2023-04-23T17:44:07;19.20;45.90
42135;DHT22;28312;43.460;11.810;2023-04-23T17:48:11;19.10;45.90
42135;DHT22;28312;43.460;11.810;2023-04-23T17:52:15;19.10;46.00
42135;DHT22;28312;43.460;11.810;2023-04-23T17:56:18;19.00;46.10
42135;DHT22;28312;43.460;11.810;2023-04-23T18:00:22;18.90;46.10
42135;DHT22;28312;43.460;11.810;2023-04-23T18:04:27;18.80;46.20
42135;DHT22;28312;43.460;11.810;2023-04-23T18:08:32;18.70;46.30
42135;DHT22;28312;43.460;11.810;2023-04-23T18:12:36;18.60;46.40
42135;DHT22;28312;43.460;11.810;2023-04-23T18:16:39;18.60;46.50
42135;DHT22;28312;43.460;11.810;2023-04-23T18:20:43;18.50;46.50
42135;DHT22;28312;43.460;11.810;2023-04-23T18:24:51;18.40;46.60
42135;DHT22;28312;43.460;11.810;2023-04-23T18:28:54;18.40;46.60
42135;DHT22;28312;43.460;11.810;2023-04-23T18:33:20;18.30;46.70
42135;DHT22;28312;43.460;11.810;2023-04-23T18:37:40;18.20;46.90
42135;DHT22;28312;43.460;11.810;2023-04-23T18:41:45;18.00;47.20
42135;DHT22;28312;43.460;11.810;2023-04-23T18:45:51;17.90;47.20
42135;DHT22;28312;43.460;11.810;2023-04-23T18:50:06;17.80;47.20
42135;DHT22;28312;43.460;11.810;2023-04-23T18:54:11;17.70;47.30
42135;DHT22;28312;43.460;11.810;2023-04-23T18:58:18;17.40;47.50
42135;DHT22;28312;43.460;11.810;2023-04-23T19:02:23;17.20;47.90
42135;DHT22;28312;43.460;11.810;2023-04-23T19:06:37;17.10;47.90
42135;DHT22;28312;43.460;11.810;2023-04-23T19:10:42;16.90;48.10
42135;DHT22;28312;43.460;11.810;2023-04-23T19:14:45;16.80;48.10
42135;DHT22;28312;43.460;11.810;2023-04-23T19:18:49;16.70;48.20
42135;DHT22;28312;43.460;11.810;2023-04-23T19:22:53;16.60;48.40
42135;DHT22;28312;43.460;11.810;2023-04-23T19:26:57;16.60;48.50
42135;DHT22;28312;43.460;11.810;2023-04-23T19:31:02;16.50;48.70
42135;DHT22;28312;43.460;11.810;2023-04-23T19:35:08;16.40;48.90
42135;DHT22;28312;43.460;11.810;2023-04-23T19:39:15;16.20;49.00
42135;DHT22;28312;43.460;11.810;2023-04-23T19:43:18;16.10;49.20
42135;DHT22;28312;43.460;11.810;2023-04-23T19:47:22;16.00;49.40
42135;DHT22;28312;43.460;11.810;2023-04-23T19:51:28;16.00;49.50
42135;DHT22;28312;43.460;11.810;2023-04-23T19:55:37;15.90;49.50
42135;DHT22;28312;43.460;11.810;2023-04-23T19:59:41;15.80;49.60
42135;DHT22;28312;43.460;11.810;2023-04-23T20:03:46;15.70;49.80
42135;DHT22;28312;43.460;11.810;2023-04-23T20:07:53;15.60;50.10
42135;DHT22;28312;43.460;11.810;2023-04-23T20:11:57;15.60;50.30
42135;DHT22;28312;43.460;11.810;2023-04-23T20:16:01;15.50;50.30
42135;DHT22;28312;43.460;11.810;2023-04-23T20:20:07;15.50;50.40
42135;DHT22;28312;43.460;11.810;2023-04-23T20:24:13;15.40;50.40
42135;DHT22;28312;43.460;11.810;2023-04-23T20:28:17;15.40;50.50
42135;DHT22;28312;43.460;11.810;2023-04-23T20:32:23;15.30;50.50
42135;DHT22;28312;43.460;11.810;2023-04-23T20:36:27;15.20;50.60
42135;DHT22;28312;43.460;11.810;2023-04-23T20:40:31;15.20;50.60
42135;DHT22;28312;43.460;11.810;2023-04-23T20:44:37;15.20;50.60
42135;DHT22;28312;43.460;11.810;2023-04-23T20:48:46;15.20;50.70
42135;DHT22;28312;43.460;11.810;2023-04-23T20:53:04;15.20;50.80
42135;DHT22;28312;43.460;11.810;2023-04-23T20:57:08;15.20;50.70
42135;DHT22;28312;43.460;11.810;2023-04-23T21:01:11;15.20;50.70
42135;DHT22;28312;43.460;11.810;2023-04-23T21:05:16;15.10;50.70
42135;DHT22;28312;43.460;11.810;2023-04-23T21:09:19;15.00;50.80
42135;DHT22;28312;43.460;11.810;2023-04-23T21:13:24;15.00;51.00
42135;DHT22;28312;43.460;11.810;2023-04-23T21:17:28;15.00;51.00
42135;DHT22;28312;43.460;11.810;2023-04-23T21:21:31;15.00;51.10
42135;DHT22;28312;43.460;11.810;2023-04-23T21:25:35;15.00;51.20
42135;DHT22;28312;43.460;11.810;2023-04-23T21:29:42;14.90;51.20
42135;DHT22;28312;43.460;11.810;2023-04-23T21:33:48;14.80;51.30
42135;DHT22;28312;43.460;11.810;2023-04-23T21:37:51;14.80;51.30
42135;DHT22;28312;43.460;11.810;2023-04-23T21:41:55;14.70;51.30
42135;DHT22;28312;43.460;11.810;2023-04-23T21:45:59;14.70;51.30
42135;DHT22;28312;43.460;11.810;2023-04-23T21:50:05;14.70;51.40
42135;DHT22;28312;43.460;11.810;2023-04-23T21:54:12;14.60;51.40
42135;DHT22;28312;43.460;11.810;2023-04-23T21:58:15;14.40;51.50
42135;DHT22;28312;43.460;11.810;2023-04-23T22:02:20;14.20;51.90
42135;DHT22;28312;43.460;11.810;2023-04-23T22:06:24;14.20;52.00
42135;DHT22;28312;43.460;11.810;2023-04-23T22:10:31;14.10;52.40
42135;DHT22;28312;43.460;11.810;2023-04-23T22:14:35;14.20;52.60
42135;DHT22;28312;43.460;11.810;2023-04-23T22:18:41;14.20;52.50
42135;DHT22;28312;43.460;11.810;2023-04-23T22:22:45;14.30;52.50
42135;DHT22;28312;43.460;11.810;2023-04-23T22:26:51;14.40;52.60
42135;DHT22;28312;43.460;11.810;2023-04-23T22:30:54;14.60;52.60
42135;DHT22;28312;43.460;11.810;2023-04-23T22:34:58;14.70;52.50
42135;DHT22;28312;43.460;11.810;2023-04-23T22:39:02;14.80;52.40
42135;DHT22;28312;43.460;11.810;2023-04-23T22:43:07;14.80;52.40
42135;DHT22;28312;43.460;11.810;2023-04-23T22:47:12;14.90;52.30
42135;DHT22;28312;43.460;11.810;2023-04-23T22:51:15;15.00;52.30
42135;DHT22;28312;43.460;11.810;2023-04-23T22:55:22;15.00;52.30
42135;DHT22;28312;43.460;11.810;2023-04-23T22:59:28;15.10;52.30
42135;DHT22;28312;43.460;11.810;2023-04-23T23:03:32;15.10;52.30
42135;DHT22;28312;43.460;11.810;2023-04-23T23:07:36;15.10;52.20
42135;DHT22;28312;43.460;11.810;2023-04-23T23:11:40;15.00;52.20
42135;DHT22;28312;43.460;11.810;2023-04-23T23:15:44;15.00;52.30
42135;DHT22;28312;43.460;11.810;2023-04-23T23:19:48;15.00;52.40
42135;DHT22;28312;43.460;11.810;2023-04-23T23:23:52;14.90;52.50
42135;DHT22;28312;43.460;11.810;2023-04-23T23:27:55;14.90;52.60
42135;DHT22;28312;43.460;11.810;2023-04-23T23:31:59;14.80;52.80
42135;DHT22;28312;43.460;11.810;2023-04-23T23:36:05;14.80;52.90
42135;DHT22;28312;43.460;11.810;2023-04-23T23:40:10;14.80;53.00
42135;DHT22;28312;43.460;11.810;2023-04-23T23:44:14;14.70;53.10
42135;DHT22;28312;43.460;11.810;2023-04-23T23:48:18;14.80;53.20
42135;DHT22;28312;43.460;11.810;2023-04-23T23:52:23;14.80;53.30
42135;DHT22;28312;43.460;11.810;2023-04-23T23:56:26;14.80;53.30
